sensor_id;sensor_type;location;lat;lon;timestamp;temperature;humidity
8591;DHT22;4333;48.322;14.340;2023-08-17T00:01:24;19.50;99.90
8591;DHT22;4333;48.322;14.340;2023-08-17T00:03:50;19.50;99.90
8591;DHT22;4333;48.322;14.340;2023-08-17T00:06:16;19.50;99.90
8591;DHT22;4333;48.322;14.340;2023-08-17T00:08:42;19.30;99.90
8591;DHT22;4333;48.322;14.340;2023-08-17T00:11:08;19.30;99.90
8591;DHT22;4333;48.322;14.340;2023-08-17T00:13:36;19.20;99.90
8591;DHT22;4333;48.322;14.340;2023-08-17T00:16:07;19.10;99.90
8591;DHT22;4333;48.322;14.340;2023-08-17T00:18:35;19.00;99.90
8591;DHT22;4333;48.322;14.340;2023-08-17T00:21:00;18.80;99.90
8591;DHT22;4333;48.322;14.340;2023-08-17T00:23:26;18.80;99.90
8591;DHT22;4333;48.322;14.340;2023-08-17T00:25:54;18.70;99.90
8591;DHT22;4333;48.322;14.340;2023-08-17T00:28:19;18.70;99.90
8591;DHT22;4333;48.322;14.340;2023-08-17T00:30:45;18.70;99.90
8591;DHT22;4333;48.322;14.340;2023-08-17T00:33:11;18.80;99.90
8591;DHT22;4333;48.322;14.340;2023-08-17T00:35:36;18.90;99.90
8591;DHT22;4333;48.322;14.340;2023-08-17T00:38:02;19.00;99.90
8591;DHT22;4333;48.322;14.340;2023-08-17T00:40:28;19.00;99.90
8591;DHT22;4333;48.322;14.340;2023-08-17T00:42:53;18.80;99.90
8591;DHT22;4333;48.322;14.340;2023-08-17T00:45:19;18.80;99.90
8591;DHT22;4333;48.322;14.340;2023-08-17T00:47:49;18.70;99.90
8591;DHT22;4333;48.322;14.340;2023-08-17T00:50:18;18.70;99.90
8591;DHT22;4333;48.322;14.340;2023-08-17T00:52:43;18.70;99.90
8591;DHT22;4333;48.322;14.340;2023-08-17T00:55:11;18.60;99.90
8591;DHT22;4333;48.322;14.340;2023-08-17T00:57:37;18.60;99.90
8591;DHT22;4333;48.322;14.340;2023-08-17T01:00:08;18.60;99.90
8591;DHT22;4333;48.322;14.340;2023-08-17T01:02:37;18.60;99.90
8591;DHT22;4333;48.322;14.340;2023-08-17T01:05:03;18.60;99.90
8591;DHT22;4333;48.322;14.340;2023-08-17T01:07:31;18.50;99.90
8591;DHT22;4333;48.322;14.340;2023-08-17T01:09:57;18.40;99.90
8591;DHT22;4333;48.322;14.340;2023-08-17T01:12:25;18.40;99.90
8591;DHT22;4333;48.322;14.340;2023-08-17T01:20:34;18.80;99.90
8591;DHT22;4333;48.322;14.340;2023-08-17T01:23:06;18.90;99.90
8591;DHT22;4333;48.322;14.340;2023-08-17T01:25:35;19.00;99.90
8591;DHT22;4333;48.322;14.340;2023-08-17T01:28:05;18.80;99.90
8591;DHT22;4333;48.322;14.340;2023-08-17T01:30:55;18.50;99.90
8591;DHT22;4333;48.322;14.340;2023-08-17T01:33:48;18.30;99.90
8591;DHT22;4333;48.322;14.340;2023-08-17T01:36:31;18.30;99.90
8591;DHT22;4333;48.322;14.340;2023-08-17T01:38:58;18.30;99.90
8591;DHT22;4333;48.322;14.340;2023-08-17T01:41:26;18.30;99.90
8591;DHT22;4333;48.322;14.340;2023-08-17T01:43:55;18.40;99.90
8591;DHT22;4333;48.322;14.340;2023-08-17T01:46:29;18.40;99.90
8591;DHT22;4333;48.322;14.340;2023-08-17T01:48:55;18.40;99.90
8591;DHT22;4333;48.322;14.340;2023-08-17T01:51:24;18.50;99.90
8591;DHT22;4333;48.322;14.340;2023-08-17T01:53:53;18.50;99.90
8591;DHT22;4333;48.322;14.340;2023-08-17T01:56:21;18.30;99.90
8591;DHT22;4333;48.322;14.340;2023-08-17T01:58:46;18.20;99.90
8591;DHT22;4333;48.322;14.340;2023-08-17T02:01:12;18.10;99.90
8591;DHT22;4333;48.322;14.340;2023-08-17T02:03:40;18.20;99.90
8591;DHT22;4333;48.322;14.340;2023-08-17T02:06:06;18.30;99.90
8591;DHT22;4333;48.322;14.340;2023-08-17T02:08:33;18.30;99.90
8591;DHT22;4333;48.322;14.340;2023-08-17T02:11:01;18.30;99.90
8591;DHT22;4333;48.322;14.340;2023-08-17T02:13:27;18.20;99.90
8591;DHT22;4333;48.322;14.340;2023-08-17T02:15:55;18.10;99.90
8591;DHT22;4333;48.322;14.340;2023-08-17T02:18:21;18.10;99.90
8591;DHT22;4333;48.322;14.340;2023-08-17T02:20:48;18.00;99.90
8591;DHT22;4333;48.322;14.340;2023-08-17T02:23:16;18.00;99.90
8591;DHT22;4333;48.322;14.340;2023-08-17T02:25:42;18.00;99.90
8591;DHT22;4333;48.322;14.340;2023-08-17T02:28:10;17.90;99.90
8591;DHT22;4333;48.322;14.340;2023-08-17T02:30:38;17.90;99.90
8591;DHT22;4333;48.322;14.340;2023-08-17T02:33:06;17.90;99.90
8591;DHT22;4333;48.322;14.340;2023-08-17T02:35:32;17.80;99.90
8591;DHT22;4333;48.322;14.340;2023-08-17T02:38:00;17.90;99.90
8591;DHT22;4333;48.322;14.340;2023-08-17T02:40:31;17.90;99.90
8591;DHT22;4333;48.322;14.340;2023-08-17T02:42:56;17.90;99.90
8591;DHT22;4333;48.322;14.340;2023-08-17T02:45:22;17.80;99.90
8591;DHT22;4333;48.322;14.340;2023-08-17T02:47:50;17.80;99.90
8591;DHT22;4333;48.322;14.340;2023-08-17T02:50:18;17.80;99.90
8591;DHT22;4333;48.322;14.340;2023-08-17T02:52:43;17.90;99.90
8591;DHT22;4333;48.322;14.340;2023-08-17T02:55:09;18.00;99.90
8591;DHT22;4333;48.322;14.340;2023-08-17T02:57:35;17.90;99.90
8591;DHT22;4333;48.322;14.340;2023-08-17T03:00:00;17.90;99.90
8591;DHT22;4333;48.322;14.340;2023-08-17T03:02:26;17.90;99.90
8591;DHT22;4333;48.322;14.340;2023-08-17T03:04:52;17.90;99.90
8591;DHT22;4333;48.322;14.340;2023-08-17T03:07:22;17.80;99.90
8591;DHT22;4333;48.322;14.340;2023-08-17T03:09:50;17.80;99.90
8591;DHT22;4333;48.322;14.340;2023-08-17T03:12:15;17.80;99.90
8591;DHT22;4333;48.322;14.340;2023-08-17T03:14:43;17.80;99.90
8591;DHT22;4333;48.322;14.340;2023-08-17T03:17:09;17.90;99.90
8591;DHT22;4333;48.322;14.340;2023-08-17T03:19:37;17.90;99.90
8591;DHT22;4333;48.322;14.340;2023-08-17T03:22:02;17.80;99.90
8591;DHT22;4333;48.322;14.340;2023-08-17T03:24:28;17.60;99.90
8591;DHT22;4333;48.322;14.340;2023-08-17T03:26:56;17.50;99.90
8591;DHT22;4333;48.322;14.340;2023-08-17T03:29:27;17.50;99.90
8591;DHT22;4333;48.322;14.340;2023-08-17T03:31:55;17.50;99.90
8591;DHT22;4333;48.322;14.340;2023-08-17T03:34:23;17.50;99.90
8591;DHT22;4333;48.322;14.340;2023-08-17T03:36:49;17.40;99.90
8591;DHT22;4333;48.322;14.340;2023-08-17T03:39:17;17.40;99.90
8591;DHT22;4333;48.322;14.340;2023-08-17T03:41:43;17.30;99.90
8591;DHT22;4333;48.322;14.340;2023-08-17T03:44:08;17.30;99.90
8591;DHT22;4333;48.322;14.340;2023-08-17T03:46:35;17.20;99.90
8591;DHT22;4333;48.322;14.340;2023-08-17T03:49:03;17.30;99.90
8591;DHT22;4333;48.322;14.340;2023-08-17T03:51:28;17.20;99.90
8591;DHT22;4333;48.322;14.340;2023-08-17T03:53:54;17.20;99.90
8591;DHT22;4333;48.322;14.340;2023-08-17T03:56:22;17.40;99.90
8591;DHT22;4333;48.322;14.340;2023-08-17T03:58:50;17.40;99.90
8591;DHT22;4333;48.322;14.340;2023-08-17T04:01:16;17.40;99.90
8591;DHT22;4333;48.322;14.340;2023-08-17T04:03:43;17.50;99.90
8591;DHT22;4333;48.322;14.340;2023-08-17T04:06:09;17.60;99.90
8591;DHT22;4333;48.322;14.340;2023-08-17T04:08:38;17.70;99.90
8591;DHT22;4333;48.322;14.340;2023-08-17T04:11:04;17.60;99.90
8591;DHT22;4333;48.322;14.340;2023-08-17T04:13:30;17.40;99.90
8591;DHT22;4333;48.322;14.340;2023-08-17T04:15:56;17.30;99.90
8591;DHT22;4333;48.322;14.340;2023-08-17T04:18:21;17.30;99.90
8591;DHT22;4333;48.322;14.340;2023-08-17T04:20:47;17.40;99.90
8591;DHT22;4333;48.322;14.340;2023-08-17T04:23:13;17.60;99.90
8591;DHT22;4333;48.322;14.340;2023-08-17T04:25:38;17.70;99.90
8591;DHT22;4333;48.322;14.340;2023-08-17T04:28:04;17.70;99.90
8591;DHT22;4333;48.322;14.340;2023-08-17T04:30:30;17.60;99.90
8591;DHT22;4333;48.322;14.340;2023-08-17T04:32:55;17.40;99.90
8591;DHT22;4333;48.322;14.340;2023-08-17T04:35:23;17.20;99.90
8591;DHT22;4333;48.322;14.340;2023-08-17T04:37:49;17.10;99.90
8591;DHT22;4333;48.322;14.340;2023-08-17T04:40:17;17.10;99.90
8591;DHT22;4333;48.322;14.340;2023-08-17T04:42:42;17.20;99.90
8591;DHT22;4333;48.322;14.340;2023-08-17T04:45:10;17.30;99.90
8591;DHT22;4333;48.322;14.340;2023-08-17T04:47:36;17.40;99.90
8591;DHT22;4333;48.322;14.340;2023-08-17T04:50:02;17.40;99.90
8591;DHT22;4333;48.322;14.340;2023-08-17T04:52:33;17.50;99.90
8591;DHT22;4333;48.322;14.340;2023-08-17T04:54:58;17.40;99.90
8591;DHT22;4333;48.322;14.340;2023-08-17T04:57:24;17.20;99.90
8591;DHT22;4333;48.322;14.340;2023-08-17T04:59:51;17.30;99.90
8591;DHT22;4333;48.322;14.340;2023-08-17T05:02:19;17.30;99.90
8591;DHT22;4333;48.322;14.340;2023-08-17T05:04:46;17.30;99.90
8591;DHT22;4333;48.322;14.340;2023-08-17T05:07:12;17.30;99.90
8591;DHT22;4333;48.322;14.340;2023-08-17T05:09:37;17.40;99.90
8591;DHT22;4333;48.322;14.340;2023-08-17T05:12:08;17.40;99.90
8591;DHT22;4333;48.322;14.340;2023-08-17T05:14:34;17.50;99.90
8591;DHT22;4333;48.322;14.340;2023-08-17T05:17:00;17.60;99.90
8591;DHT22;4333;48.322;14.340;2023-08-17T05:19:25;17.60;99.90
8591;DHT22;4333;48.322;14.340;2023-08-17T05:21:53;17.60;99.90
8591;DHT22;4333;48.322;14.340;2023-08-17T05:24:19;17.50;99.90
8591;DHT22;4333;48.322;14.340;2023-08-17T05:26:46;17.50;99.90
8591;DHT22;4333;48.322;14.340;2023-08-17T05:29:14;17.50;99.90
8591;DHT22;4333;48.322;14.340;2023-08-17T05:31:44;17.60;99.90
8591;DHT22;4333;48.322;14.340;2023-08-17T05:34:12;17.70;99.90
8591;DHT22;4333;48.322;14.340;2023-08-17T05:36:38;17.80;99.90
8591;DHT22;4333;48.322;14.340;2023-08-17T05:39:09;17.90;99.90
8591;DHT22;4333;48.322;14.340;2023-08-17T05:41:37;18.00;99.90
8591;DHT22;4333;48.322;14.340;2023-08-17T05:44:06;18.00;99.90
8591;DHT22;4333;48.322;14.340;2023-08-17T05:46:37;18.10;99.90
8591;DHT22;4333;48.322;14.340;2023-08-17T05:49:04;18.10;99.90
8591;DHT22;4333;48.322;14.340;2023-08-17T05:51:29;18.20;99.90
8591;DHT22;4333;48.322;14.340;2023-08-17T05:53:57;18.80;99.90
8591;DHT22;4333;48.322;14.340;2023-08-17T05:56:23;19.70;99.90
8591;DHT22;4333;48.322;14.340;2023-08-17T05:58:49;21.00;99.90
8591;DHT22;4333;48.322;14.340;2023-08-17T06:01:17;23.10;99.90
8591;DHT22;4333;48.322;14.340;2023-08-17T06:03:45;25.20;99.90
8591;DHT22;4333;48.322;14.340;2023-08-17T06:06:13;27.20;99.90
8591;DHT22;4333;48.322;14.340;2023-08-17T06:08:39;29.00;85.20
8591;DHT22;4333;48.322;14.340;2023-08-17T06:11:04;30.10;53.20
8591;DHT22;4333;48.322;14.340;2023-08-17T06:13:30;31.10;38.20
8591;DHT22;4333;48.322;14.340;2023-08-17T06:16:00;32.00;28.60
8591;DHT22;4333;48.322;14.340;2023-08-17T06:18:29;32.90;17.10
8591;DHT22;4333;48.322;14.340;2023-08-17T06:20:54;33.10;10.30
8591;DHT22;4333;48.322;14.340;2023-08-17T06:23:20;33.90;8.10
8591;DHT22;4333;48.322;14.340;2023-08-17T06:25:47;34.00;1.00
8591;DHT22;4333;48.322;14.340;2023-08-17T06:28:17;34.20;1.00
8591;DHT22;4333;48.322;14.340;2023-08-17T06:30:43;34.30;1.00
8591;DHT22;4333;48.322;14.340;2023-08-17T06:33:11;34.80;1.00
8591;DHT22;4333;48.322;14.340;2023-08-17T06:35:39;35.50;1.00
8591;DHT22;4333;48.322;14.340;2023-08-17T06:38:10;35.80;1.00
8591;DHT22;4333;48.322;14.340;2023-08-17T06:40:38;35.90;1.00
8591;DHT22;4333;48.322;14.340;2023-08-17T06:43:04;35.50;1.00
8591;DHT22;4333;48.322;14.340;2023-08-17T06:45:31;34.80;1.00
8591;DHT22;4333;48.322;14.340;2023-08-17T06:47:57;34.60;1.00
8591;DHT22;4333;48.322;14.340;2023-08-17T06:50:23;34.60;1.00
8591;DHT22;4333;48.322;14.340;2023-08-17T06:52:49;35.50;1.00
8591;DHT22;4333;48.322;14.340;2023-08-17T06:55:17;36.40;1.00
8591;DHT22;4333;48.322;14.340;2023-08-17T06:57:44;37.00;1.00
8591;DHT22;4333;48.322;14.340;2023-08-17T07:00:17;37.20;1.00
8591;DHT22;4333;48.322;14.340;2023-08-17T07:02:50;37.70;1.00
8591;DHT22;4333;48.322;14.340;2023-08-17T07:05:18;38.00;1.00
8591;DHT22;4333;48.322;14.340;2023-08-17T07:07:44;37.40;1.00
8591;DHT22;4333;48.322;14.340;2023-08-17T07:10:12;36.90;1.00
8591;DHT22;4333;48.322;14.340;2023-08-17T07:12:42;35.90;1.00
8591;DHT22;4333;48.322;14.340;2023-08-17T07:15:09;35.00;1.00
8591;DHT22;4333;48.322;14.340;2023-08-17T07:17:40;35.80;1.00
8591;DHT22;4333;48.322;14.340;2023-08-17T07:20:11;36.30;1.00
8591;DHT22;4333;48.322;14.340;2023-08-17T07:22:37;36.00;1.00
8591;DHT22;4333;48.322;14.340;2023-08-17T07:25:03;35.80;1.00
8591;DHT22;4333;48.322;14.340;2023-08-17T07:27:31;35.10;1.00
8591;DHT22;4333;48.322;14.340;2023-08-17T07:29:59;34.70;1.00
8591;DHT22;4333;48.322;14.340;2023-08-17T07:32:28;34.90;1.00
8591;DHT22;4333;48.322;14.340;2023-08-17T07:34:54;34.10;1.00
8591;DHT22;4333;48.322;14.340;2023-08-17T07:37:19;34.20;1.00
8591;DHT22;4333;48.322;14.340;2023-08-17T07:39:45;32.50;1.00
8591;DHT22;4333;48.322;14.340;2023-08-17T07:42:13;31.70;1.00
8591;DHT22;4333;48.322;14.340;2023-08-17T07:44:41;29.00;8.60
8591;DHT22;4333;48.322;14.340;2023-08-17T07:47:10;27.70;34.20
8591;DHT22;4333;48.322;14.340;2023-08-17T07:49:38;26.70;45.40
8591;DHT22;4333;48.322;14.340;2023-08-17T07:52:04;25.90;56.80
8591;DHT22;4333;48.322;14.340;2023-08-17T07:54:29;25.70;61.40
8591;DHT22;4333;48.322;14.340;2023-08-17T07:56:55;25.20;69.50
8591;DHT22;4333;48.322;14.340;2023-08-17T07:59:23;24.90;79.00
8591;DHT22;4333;48.322;14.340;2023-08-17T08:01:49;25.20;83.60
8591;DHT22;4333;48.322;14.340;2023-08-17T08:04:14;25.10;86.70
8591;DHT22;4333;48.322;14.340;2023-08-17T08:06:40;25.30;79.80
8591;DHT22;4333;48.322;14.340;2023-08-17T08:09:05;25.30;85.80
8591;DHT22;4333;48.322;14.340;2023-08-17T08:11:32;25.10;82.80
8591;DHT22;4333;48.322;14.340;2023-08-17T08:13:58;25.10;84.70
8591;DHT22;4333;48.322;14.340;2023-08-17T08:16:23;25.20;80.00
8591;DHT22;4333;48.322;14.340;2023-08-17T08:18:49;25.20;79.20
8591;DHT22;4333;48.322;14.340;2023-08-17T08:21:14;25.30;74.40
8591;DHT22;4333;48.322;14.340;2023-08-17T08:23:43;25.50;77.60
8591;DHT22;4333;48.322;14.340;2023-08-17T08:26:08;26.80;70.60
8591;DHT22;4333;48.322;14.340;2023-08-17T08:28:34;28.00;59.90
8591;DHT22;4333;48.322;14.340;2023-08-17T08:31:03;28.60;51.30
8591;DHT22;4333;48.322;14.340;2023-08-17T08:33:30;28.70;43.40
8591;DHT22;4333;48.322;14.340;2023-08-17T08:35:55;28.90;47.10
8591;DHT22;4333;48.322;14.340;2023-08-17T08:38:21;28.10;45.90
8591;DHT22;4333;48.322;14.340;2023-08-17T08:40:47;28.20;45.10
8591;DHT22;4333;48.322;14.340;2023-08-17T08:43:16;27.50;49.20
8591;DHT22;4333;48.322;14.340;2023-08-17T08:45:42;28.00;50.50
8591;DHT22;4333;48.322;14.340;2023-08-17T08:48:11;28.50;51.20
8591;DHT22;4333;48.322;14.340;2023-08-17T08:50:40;29.00;44.60
8591;DHT22;4333;48.322;14.340;2023-08-17T08:53:11;28.80;42.90
8591;DHT22;4333;48.322;14.340;2023-08-17T08:55:43;28.40;44.60
8591;DHT22;4333;48.322;14.340;2023-08-17T08:58:11;27.90;51.20
8591;DHT22;4333;48.322;14.340;2023-08-17T09:00:38;27.80;53.30
8591;DHT22;4333;48.322;14.340;2023-08-17T09:03:04;28.10;48.00
8591;DHT22;4333;48.322;14.340;2023-08-17T09:05:31;27.70;46.80
8591;DHT22;4333;48.322;14.340;2023-08-17T09:08:00;27.70;49.30
8591;DHT22;4333;48.322;14.340;2023-08-17T09:10:28;28.60;47.10
8591;DHT22;4333;48.322;14.340;2023-08-17T09:12:53;29.60;40.60
8591;DHT22;4333;48.322;14.340;2023-08-17T09:15:21;29.30;34.90
8591;DHT22;4333;48.322;14.340;2023-08-17T09:17:47;29.30;42.00
8591;DHT22;4333;48.322;14.340;2023-08-17T09:20:44;29.40;36.10
8591;DHT22;4333;48.322;14.340;2023-08-17T09:23:14;29.30;44.60
8591;DHT22;4333;48.322;14.340;2023-08-17T09:25:41;29.90;37.10
8591;DHT22;4333;48.322;14.340;2023-08-17T09:28:14;30.10;32.10
8591;DHT22;4333;48.322;14.340;2023-08-17T09:30:57;30.00;31.60
8591;DHT22;4333;48.322;14.340;2023-08-17T09:33:30;29.60;33.70
8591;DHT22;4333;48.322;14.340;2023-08-17T09:35:57;29.00;38.70
8591;DHT22;4333;48.322;14.340;2023-08-17T09:38:23;28.10;46.90
8591;DHT22;4333;48.322;14.340;2023-08-17T09:40:51;27.40;53.00
8591;DHT22;4333;48.322;14.340;2023-08-17T09:43:18;27.20;55.90
8591;DHT22;4333;48.322;14.340;2023-08-17T09:45:48;27.10;56.70
8591;DHT22;4333;48.322;14.340;2023-08-17T09:48:17;27.10;58.00
8591;DHT22;4333;48.322;14.340;2023-08-17T09:50:48;27.10;58.10
8591;DHT22;4333;48.322;14.340;2023-08-17T09:53:17;28.30;54.10
8591;DHT22;4333;48.322;14.340;2023-08-17T09:55:49;28.20;49.10
8591;DHT22;4333;48.322;14.340;2023-08-17T09:58:16;28.40;48.40
8591;DHT22;4333;48.322;14.340;2023-08-17T10:00:50;28.00;48.50
8591;DHT22;4333;48.322;14.340;2023-08-17T10:03:17;27.70;52.30
8591;DHT22;4333;48.322;14.340;2023-08-17T10:05:47;27.50;53.00
8591;DHT22;4333;48.322;14.340;2023-08-17T10:08:18;27.60;56.70
8591;DHT22;4333;48.322;14.340;2023-08-17T10:10:45;28.40;52.10
8591;DHT22;4333;48.322;14.340;2023-08-17T10:13:12;28.10;51.20
8591;DHT22;4333;48.322;14.340;2023-08-17T10:21:29;28.20;54.40
8591;DHT22;4333;48.322;14.340;2023-08-17T10:23:57;28.00;49.40
8591;DHT22;4333;48.322;14.340;2023-08-17T10:26:24;27.90;52.30
8591;DHT22;4333;48.322;14.340;2023-08-17T10:28:51;27.80;54.60
8591;DHT22;4333;48.322;14.340;2023-08-17T10:31:17;27.60;53.70
8591;DHT22;4333;48.322;14.340;2023-08-17T10:33:44;28.00;56.10
8591;DHT22;4333;48.322;14.340;2023-08-17T10:36:13;28.00;51.20
8591;DHT22;4333;48.322;14.340;2023-08-17T10:38:40;28.20;53.60
8591;DHT22;4333;48.322;14.340;2023-08-17T10:41:10;28.30;52.00
8591;DHT22;4333;48.322;14.340;2023-08-17T10:43:56;28.20;51.90
8591;DHT22;4333;48.322;14.340;2023-08-17T10:46:33;28.10;51.70
8591;DHT22;4333;48.322;14.340;2023-08-17T10:49:03;27.80;54.20
8591;DHT22;4333;48.322;14.340;2023-08-17T10:51:30;28.00;58.40
8591;DHT22;4333;48.322;14.340;2023-08-17T10:54:01;28.10;53.90
8591;DHT22;4333;48.322;14.340;2023-08-17T10:56:32;28.00;53.70
8591;DHT22;4333;48.322;14.340;2023-08-17T10:59:02;28.40;57.20
8591;DHT22;4333;48.322;14.340;2023-08-17T11:01:39;28.70;53.50
8591;DHT22;4333;48.322;14.340;2023-08-17T11:04:17;29.20;48.00
8591;DHT22;4333;48.322;14.340;2023-08-17T11:06:46;28.70;46.40
8591;DHT22;4333;48.322;14.340;2023-08-17T11:09:25;28.50;52.00
8591;DHT22;4333;48.322;14.340;2023-08-17T11:11:54;28.80;50.60
8591;DHT22;4333;48.322;14.340;2023-08-17T11:14:22;29.10;49.70
8591;DHT22;4333;48.322;14.340;2023-08-17T11:16:48;29.20;43.10
8591;DHT22;4333;48.322;14.340;2023-08-17T11:19:17;29.20;45.90
8591;DHT22;4333;48.322;14.340;2023-08-17T11:21:43;29.10;46.00
8591;DHT22;4333;48.322;14.340;2023-08-17T11:24:10;29.60;48.90
8591;DHT22;4333;48.322;14.340;2023-08-17T11:26:38;29.30;45.40
8591;DHT22;4333;48.322;14.340;2023-08-17T11:29:04;29.10;40.70
8591;DHT22;4333;48.322;14.340;2023-08-17T11:31:32;28.80;41.00
8591;DHT22;4333;48.322;14.340;2023-08-17T11:33:58;28.70;42.50
8591;DHT22;4333;48.322;14.340;2023-08-17T11:36:27;28.80;41.80
8591;DHT22;4333;48.322;14.340;2023-08-17T11:38:53;28.70;41.60
8591;DHT22;4333;48.322;14.340;2023-08-17T11:41:19;28.70;37.10
8591;DHT22;4333;48.322;14.340;2023-08-17T11:43:45;28.80;39.20
8591;DHT22;4333;48.322;14.340;2023-08-17T11:46:11;29.00;33.10
8591;DHT22;4333;48.322;14.340;2023-08-17T11:48:37;29.20;32.50
8591;DHT22;4333;48.322;14.340;2023-08-17T11:51:03;29.00;33.90
8591;DHT22;4333;48.322;14.340;2023-08-17T11:53:36;29.20;31.90
8591;DHT22;4333;48.322;14.340;2023-08-17T11:56:02;29.80;31.60
8591;DHT22;4333;48.322;14.340;2023-08-17T11:58:46;29.60;36.60
8591;DHT22;4333;48.322;14.340;2023-08-17T12:01:12;29.50;37.20
8591;DHT22;4333;48.322;14.340;2023-08-17T12:03:39;29.60;34.00
8591;DHT22;4333;48.322;14.340;2023-08-17T12:06:06;29.70;40.50
8591;DHT22;4333;48.322;14.340;2023-08-17T12:08:32;30.40;38.90
8591;DHT22;4333;48.322;14.340;2023-08-17T12:10:58;31.10;28.50
8591;DHT22;4333;48.322;14.340;2023-08-17T12:13:34;31.30;25.70
8591;DHT22;4333;48.322;14.340;2023-08-17T12:16:05;31.30;23.90
8591;DHT22;4333;48.322;14.340;2023-08-17T12:18:34;31.60;26.10
8591;DHT22;4333;48.322;14.340;2023-08-17T12:21:00;31.90;21.60
8591;DHT22;4333;48.322;14.340;2023-08-17T12:23:28;31.50;18.30
8591;DHT22;4333;48.322;14.340;2023-08-17T12:25:54;31.00;29.50
8591;DHT22;4333;48.322;14.340;2023-08-17T12:28:21;31.10;25.90
8591;DHT22;4333;48.322;14.340;2023-08-17T12:30:47;31.30;25.20
8591;DHT22;4333;48.322;14.340;2023-08-17T12:33:12;31.50;22.40
8591;DHT22;4333;48.322;14.340;2023-08-17T12:35:38;31.00;25.80
8591;DHT22;4333;48.322;14.340;2023-08-17T12:38:04;30.70;24.00
8591;DHT22;4333;48.322;14.340;2023-08-17T12:40:31;30.90;28.40
8591;DHT22;4333;48.322;14.340;2023-08-17T12:42:58;30.70;35.20
8591;DHT22;4333;48.322;14.340;2023-08-17T12:45:26;30.10;27.60
8591;DHT22;4333;48.322;14.340;2023-08-17T12:47:52;29.90;26.70
8591;DHT22;4333;48.322;14.340;2023-08-17T12:50:18;29.90;28.80
8591;DHT22;4333;48.322;14.340;2023-08-17T12:52:43;30.60;19.50
8591;DHT22;4333;48.322;14.340;2023-08-17T12:55:09;30.30;23.50
8591;DHT22;4333;48.322;14.340;2023-08-17T12:57:39;31.10;25.50
8591;DHT22;4333;48.322;14.340;2023-08-17T13:00:06;32.00;14.00
8591;DHT22;4333;48.322;14.340;2023-08-17T13:02:32;31.80;8.60
8591;DHT22;4333;48.322;14.340;2023-08-17T13:04:57;31.20;9.20
8591;DHT22;4333;48.322;14.340;2023-08-17T13:07:23;31.30;13.70
8591;DHT22;4333;48.322;14.340;2023-08-17T13:09:49;31.80;6.10
8591;DHT22;4333;48.322;14.340;2023-08-17T13:12:15;32.20;7.40
8591;DHT22;4333;48.322;14.340;2023-08-17T13:14:40;31.90;1.00
8591;DHT22;4333;48.322;14.340;2023-08-17T13:17:06;31.90;3.50
8591;DHT22;4333;48.322;14.340;2023-08-17T13:19:32;32.20;3.50
8591;DHT22;4333;48.322;14.340;2023-08-17T13:21:57;32.00;1.00
8591;DHT22;4333;48.322;14.340;2023-08-17T13:24:23;31.60;1.00
8591;DHT22;4333;48.322;14.340;2023-08-17T13:26:49;31.00;3.70
8591;DHT22;4333;48.322;14.340;2023-08-17T13:29:18;30.70;3.90
8591;DHT22;4333;48.322;14.340;2023-08-17T13:31:47;30.80;1.00
8591;DHT22;4333;48.322;14.340;2023-08-17T13:34:18;30.30;4.10
8591;DHT22;4333;48.322;14.340;2023-08-17T13:36:46;30.50;6.90
8591;DHT22;4333;48.322;14.340;2023-08-17T13:39:12;30.30;4.40
8591;DHT22;4333;48.322;14.340;2023-08-17T13:41:38;30.70;4.70
8591;DHT22;4333;48.322;14.340;2023-08-17T13:44:03;30.80;1.90
8591;DHT22;4333;48.322;14.340;2023-08-17T13:46:29;30.70;1.00
8591;DHT22;4333;48.322;14.340;2023-08-17T13:49:00;29.90;1.00
8591;DHT22;4333;48.322;14.340;2023-08-17T13:51:25;29.40;1.00
8591;DHT22;4333;48.322;14.340;2023-08-17T13:53:51;29.10;1.00
8591;DHT22;4333;48.322;14.340;2023-08-17T13:56:17;29.20;11.00
8591;DHT22;4333;48.322;14.340;2023-08-17T13:58:42;29.40;7.20
8591;DHT22;4333;48.322;14.340;2023-08-17T14:01:08;29.00;9.50
8591;DHT22;4333;48.322;14.340;2023-08-17T14:03:35;28.70;9.80
8591;DHT22;4333;48.322;14.340;2023-08-17T14:06:02;28.50;10.50
8591;DHT22;4333;48.322;14.340;2023-08-17T14:08:30;28.50;9.20
8591;DHT22;4333;48.322;14.340;2023-08-17T14:10:56;28.60;24.50
8591;DHT22;4333;48.322;14.340;2023-08-17T14:13:22;28.20;30.90
8591;DHT22;4333;48.322;14.340;2023-08-17T14:15:49;28.00;45.20
8591;DHT22;4333;48.322;14.340;2023-08-17T14:18:15;27.90;35.80
8591;DHT22;4333;48.322;14.340;2023-08-17T14:20:41;27.90;63.50
8591;DHT22;4333;48.322;14.340;2023-08-17T14:23:06;27.70;50.50
8591;DHT22;4333;48.322;14.340;2023-08-17T14:25:32;27.80;47.20
8591;DHT22;4333;48.322;14.340;2023-08-17T14:27:58;28.50;33.80
8591;DHT22;4333;48.322;14.340;2023-08-17T14:30:24;29.10;16.30
8591;DHT22;4333;48.322;14.340;2023-08-17T14:32:51;29.40;4.20
8591;DHT22;4333;48.322;14.340;2023-08-17T14:35:20;29.80;1.00
8591;DHT22;4333;48.322;14.340;2023-08-17T14:37:46;29.90;1.00
8591;DHT22;4333;48.322;14.340;2023-08-17T14:40:11;30.00;1.00
8591;DHT22;4333;48.322;14.340;2023-08-17T14:42:39;30.40;1.00
8591;DHT22;4333;48.322;14.340;2023-08-17T14:45:08;30.60;1.00
8591;DHT22;4333;48.322;14.340;2023-08-17T14:47:34;30.90;1.00
8591;DHT22;4333;48.322;14.340;2023-08-17T14:49:59;31.20;1.00
8591;DHT22;4333;48.322;14.340;2023-08-17T14:52:25;31.60;1.00
8591;DHT22;4333;48.322;14.340;2023-08-17T14:54:51;31.90;1.00
8591;DHT22;4333;48.322;14.340;2023-08-17T14:57:19;31.80;1.00
8591;DHT22;4333;48.322;14.340;2023-08-17T14:59:45;31.10;1.00
8591;DHT22;4333;48.322;14.340;2023-08-17T15:02:13;30.70;1.00
8591;DHT22;4333;48.322;14.340;2023-08-17T15:04:39;30.20;1.00
8591;DHT22;4333;48.322;14.340;2023-08-17T15:07:07;30.10;1.00
8591;DHT22;4333;48.322;14.340;2023-08-17T15:09:39;30.20;1.00
8591;DHT22;4333;48.322;14.340;2023-08-17T15:12:07;30.10;1.00
8591;DHT22;4333;48.322;14.340;2023-08-17T15:14:35;30.10;1.00
8591;DHT22;4333;48.322;14.340;2023-08-17T15:17:03;30.20;1.00
8591;DHT22;4333;48.322;14.340;2023-08-17T15:19:28;30.20;1.00
8591;DHT22;4333;48.322;14.340;2023-08-17T15:21:55;30.60;1.00
8591;DHT22;4333;48.322;14.340;2023-08-17T15:24:20;30.40;1.00
8591;DHT22;4333;48.322;14.340;2023-08-17T15:26:46;30.80;1.00
8591;DHT22;4333;48.322;14.340;2023-08-17T15:29:12;30.60;1.00
8591;DHT22;4333;48.322;14.340;2023-08-17T15:31:37;30.30;1.00
8591;DHT22;4333;48.322;14.340;2023-08-17T15:34:06;29.80;8.80
8591;DHT22;4333;48.322;14.340;2023-08-17T15:36:34;29.50;10.30
8591;DHT22;4333;48.322;14.340;2023-08-17T15:38:59;29.00;10.30
8591;DHT22;4333;48.322;14.340;2023-08-17T15:41:27;28.70;11.20
8591;DHT22;4333;48.322;14.340;2023-08-17T15:43:52;28.50;16.60
8591;DHT22;4333;48.322;14.340;2023-08-17T15:46:18;28.30;22.40
8591;DHT22;4333;48.322;14.340;2023-08-17T15:48:44;28.20;23.30
8591;DHT22;4333;48.322;14.340;2023-08-17T15:51:09;28.10;31.90
8591;DHT22;4333;48.322;14.340;2023-08-17T15:53:37;28.00;36.50
8591;DHT22;4333;48.322;14.340;2023-08-17T15:56:05;27.80;35.70
8591;DHT22;4333;48.322;14.340;2023-08-17T15:58:31;27.70;47.40
8591;DHT22;4333;48.322;14.340;2023-08-17T16:00:57;27.60;29.50
8591;DHT22;4333;48.322;14.340;2023-08-17T16:03:22;27.50;46.80